Time;durP1;ratioP1;P1;durP2;ratioP2;P2;SDS_P1;SDS_P2;PMS_P1;PMS_P2;Temp;Humidity;BMP_temperature;BMP_pressure;BME280_temperature;BME280_humidity;BME280_pressure;Samples;Min_cycle;Max_cycle;Signal;HPM_P1;HPM_P2
2023/12/14 00:01:54;;;;;;;2.70;1.40;;;;;;;;;;5052522;28;20419;-86
2023/12/14 00:04:21;;;;;;;3.00;1.60;;;;;;;;;;5063506;28;20582;-86
2023/12/14 00:06:48;;;;;;;2.65;1.63;;;;;;;;;;5070913;28;20131;-85
2023/12/14 00:09:15;;;;;;;4.03;1.85;;;;;;;;;;5063997;28;20045;-87
2023/12/14 00:11:41;;;;;;;2.83;1.90;;;;;;;;;;5070194;28;20422;-86
2023/12/14 00:14:08;;;;;;;3.08;1.70;;;;;;;;;;5068944;28;20467;-86
2023/12/14 00:16:35;;;;;;;3.63;2.00;;;;;;;;;;5064185;28;20056;-86
2023/12/14 00:19:02;;;;;;;4.68;2.20;;;;;;;;;;5068887;28;20053;-86
2023/12/14 00:21:29;;;;;;;4.05;2.00;;;;;;;;;;5078574;28;20048;-85
2023/12/14 00:23:56;;;;;;;2.72;1.67;;;;;;;;;;5050922;28;20121;-84
2023/12/14 00:26:23;;;;;;;5.38;1.77;;;;;;;;;;5057157;28;20056;-85
2023/12/14 00:28:50;;;;;;;4.43;2.60;;;;;;;;;;5050740;28;20790;-86
2023/12/14 00:31:21;;;;;;;3.55;1.98;;;;;;;;;;5065375;28;20106;-85
2023/12/14 00:33:48;;;;;;;6.78;2.65;;;;;;;;;;5059200;28;20090;-84
2023/12/14 00:36:19;;;;;;;3.58;2.00;;;;;;;;;;5048178;28;20063;-86
2023/12/14 00:38:46;;;;;;;2.05;1.65;;;;;;;;;;5032890;28;20059;-87
2023/12/14 00:41:13;;;;;;;3.35;1.70;;;;;;;;;;5047538;28;20106;-86
2023/12/14 00:43:40;;;;;;;5.82;2.88;;;;;;;;;;5049710;28;20096;-86
2023/12/14 00:46:07;;;;;;;3.60;1.75;;;;;;;;;;5067909;28;20529;-86
2023/12/14 00:48:34;;;;;;;2.75;2.15;;;;;;;;;;5033957;28;20514;-85
2023/12/14 00:51:01;;;;;;;4.00;1.95;;;;;;;;;;5051283;28;20521;-85
2023/12/14 00:53:28;;;;;;;3.28;2.10;;;;;;;;;;5051816;28;20045;-85
2023/12/14 00:55:54;;;;;;;3.60;2.10;;;;;;;;;;5066468;28;20048;-85
2023/12/14 00:58:21;;;;;;;2.40;1.60;;;;;;;;;;5047924;28;20048;-86
2023/12/14 01:00:48;;;;;;;3.03;1.75;;;;;;;;;;5048401;28;20056;-85
2023/12/14 01:03:15;;;;;;;3.00;2.03;;;;;;;;;;5063220;28;20487;-84
2023/12/14 01:05:42;;;;;;;2.72;1.75;;;;;;;;;;5034283;28;20075;-84
2023/12/14 01:08:09;;;;;;;2.40;1.60;;;;;;;;;;5068524;28;20131;-84
2023/12/14 01:10:36;;;;;;;3.30;1.88;;;;;;;;;;5035764;28;20059;-85
2023/12/14 01:13:02;;;;;;;2.03;1.70;;;;;;;;;;5050478;28;20049;-85
2023/12/14 01:15:29;;;;;;;3.72;1.60;;;;;;;;;;5065013;28;20457;-84
2023/12/14 01:17:56;;;;;;;1.83;1.48;;;;;;;;;;5030199;28;20049;-85
2023/12/14 01:20:23;;;;;;;3.10;1.98;;;;;;;;;;5033166;28;20052;-84
2023/12/14 01:22:50;;;;;;;2.65;1.70;;;;;;;;;;5045942;28;20052;-85
2023/12/14 01:25:17;;;;;;;2.38;1.80;;;;;;;;;;5052811;28;20052;-85
2023/12/14 01:27:43;;;;;;;2.30;1.67;;;;;;;;;;5032915;28;20076;-85
2023/12/14 01:30:11;;;;;;;2.53;1.92;;;;;;;;;;5063580;28;20101;-84
2023/12/14 01:32:37;;;;;;;3.40;1.90;;;;;;;;;;5069400;28;20109;-85
2023/12/14 01:35:05;;;;;;;4.10;1.98;;;;;;;;;;5045367;28;20479;-86
2023/12/14 01:37:31;;;;;;;3.72;2.10;;;;;;;;;;5053219;28;20049;-86
2023/12/14 01:39:58;;;;;;;4.03;2.22;;;;;;;;;;5060635;28;20045;-86
2023/12/14 01:42:26;;;;;;;5.63;2.17;;;;;;;;;;5038929;28;20087;-86
2023/12/14 01:44:52;;;;;;;3.38;2.08;;;;;;;;;;5055371;28;20465;-86
2023/12/14 01:47:19;;;;;;;2.78;1.90;;;;;;;;;;5049871;28;20048;-85
2023/12/14 01:49:46;;;;;;;4.63;1.90;;;;;;;;;;5052792;28;20049;-85
2023/12/14 01:52:13;;;;;;;2.20;1.73;;;;;;;;;;5051512;28;20510;-85
2023/12/14 01:54:40;;;;;;;3.90;2.47;;;;;;;;;;5039149;28;20052;-87
2023/12/14 01:57:07;;;;;;;2.35;1.85;;;;;;;;;;5055980;28;20090;-87
2023/12/14 01:59:33;;;;;;;2.20;1.90;;;;;;;;;;5078286;28;20049;-86
2023/12/14 02:02:02;;;;;;;2.85;1.80;;;;;;;;;;5070110;28;20057;-86
2023/12/14 02:04:30;;;;;;;4.53;2.20;;;;;;;;;;5057782;28;20056;-85
2023/12/14 02:06:58;;;;;;;5.15;2.33;;;;;;;;;;5057733;28;20059;-84
2023/12/14 02:09:25;;;;;;;3.83;2.28;;;;;;;;;;5055525;28;20534;-84
2023/12/14 02:11:52;;;;;;;4.63;2.38;;;;;;;;;;5073596;28;20049;-84
2023/12/14 02:14:21;;;;;;;5.88;2.17;;;;;;;;;;5050753;28;20058;-84
2023/12/14 02:16:48;;;;;;;4.53;2.90;;;;;;;;;;5037917;28;20702;-83
2023/12/14 02:19:15;;;;;;;2.35;2.00;;;;;;;;;;5075496;28;20441;-84
2023/12/14 02:21:42;;;;;;;4.45;2.17;;;;;;;;;;5091380;28;20450;-83
2023/12/14 02:24:09;;;;;;;3.53;1.85;;;;;;;;;;5056998;28;20056;-84
2023/12/14 02:26:35;;;;;;;3.42;2.08;;;;;;;;;;5076269;28;20119;-83
2023/12/14 02:29:02;;;;;;;3.88;2.10;;;;;;;;;;5059149;28;20625;-83
2023/12/14 02:31:29;;;;;;;3.00;1.75;;;;;;;;;;5067385;28;20513;-83
2023/12/14 02:33:56;;;;;;;1.73;1.55;;;;;;;;;;5089192;28;20095;-85
2023/12/14 02:36:23;;;;;;;2.83;2.50;;;;;;;;;;5035444;28;20430;-85
2023/12/14 02:38:49;;;;;;;3.47;2.13;;;;;;;;;;5031765;28;20099;-85
2023/12/14 02:41:16;;;;;;;5.68;2.08;;;;;;;;;;5068340;28;20049;-84
2023/12/14 02:43:43;;;;;;;3.90;2.05;;;;;;;;;;5053728;28;20118;-83
2023/12/14 02:46:11;;;;;;;4.07;2.22;;;;;;;;;;5089960;28;20053;-83
2023/12/14 02:48:41;;;;;;;3.00;2.00;;;;;;;;;;5089891;28;20053;-83
2023/12/14 02:51:12;;;;;;;2.53;2.20;;;;;;;;;;5056057;28;20064;-84
2023/12/14 02:53:39;;;;;;;2.38;2.10;;;;;;;;;;5092623;28;20139;-83
2023/12/14 02:56:06;;;;;;;2.05;1.73;;;;;;;;;;5074287;28;20057;-83
2023/12/14 02:58:33;;;;;;;3.97;2.10;;;;;;;;;;5059207;28;20056;-83
2023/12/14 03:01:00;;;;;;;3.88;2.13;;;;;;;;;;5074190;28;20052;-82
2023/12/14 03:03:26;;;;;;;2.92;2.03;;;;;;;;;;5021034;28;20167;-83
2023/12/14 03:05:54;;;;;;;3.33;1.60;;;;;;;;;;5050245;28;20064;-84
2023/12/14 03:08:21;;;;;;;4.40;2.15;;;;;;;;;;5040519;28;20106;-84
2023/12/14 03:11:26;;;;;;;2.67;2.03;;;;;;;;;;5070868;28;20160;-85
2023/12/14 03:13:53;;;;;;;3.15;1.92;;;;;;;;;;5066862;28;20114;-85
2023/12/14 03:16:20;;;;;;;2.35;1.67;;;;;;;;;;5059771;28;20056;-83
2023/12/14 03:18:47;;;;;;;2.47;1.55;;;;;;;;;;5063693;28;20049;-85
2023/12/14 03:21:14;;;;;;;2.22;1.75;;;;;;;;;;5070952;28;20045;-83
2023/12/14 03:23:41;;;;;;;2.15;1.60;;;;;;;;;;5073544;28;20402;-84
2023/12/14 03:26:07;;;;;;;3.63;1.65;;;;;;;;;;5073713;28;20166;-84
2023/12/14 03:28:34;;;;;;;2.15;1.50;;;;;;;;;;5054457;28;20049;-84
2023/12/14 03:31:01;;;;;;;3.70;1.80;;;;;;;;;;5039736;28;20544;-84
2023/12/14 03:33:29;;;;;;;2.15;1.73;;;;;;;;;;5036555;28;20095;-84
2023/12/14 03:35:56;;;;;;;4.25;1.60;;;;;;;;;;5052050;28;20135;-84
2023/12/14 03:38:23;;;;;;;3.08;1.85;;;;;;;;;;5050003;28;20048;-84
2023/12/14 03:40:49;;;;;;;2.20;1.27;;;;;;;;;;5066221;28;20071;-85
2023/12/14 03:43:16;;;;;;;2.28;1.70;;;;;;;;;;5069829;28;20132;-84
2023/12/14 03:45:43;;;;;;;1.88;1.52;;;;;;;;;;5047709;28;20526;-85
2023/12/14 03:48:10;;;;;;;4.70;1.45;;;;;;;;;;5055265;28;20088;-85
2023/12/14 03:50:37;;;;;;;2.40;1.73;;;;;;;;;;5053047;28;20077;-84
2023/12/14 03:53:04;;;;;;;3.00;1.60;;;;;;;;;;5068693;28;20106;-85
2023/12/14 03:55:31;;;;;;;2.38;1.40;;;;;;;;;;5041588;28;20092;-85
2023/12/14 03:57:58;;;;;;;2.78;1.50;;;;;;;;;;5071797;28;20446;-85
2023/12/14 04:00:25;;;;;;;4.63;2.10;;;;;;;;;;5064440;28;20068;-83
2023/12/14 04:02:51;;;;;;;2.47;1.40;;;;;;;;;;5040426;28;20136;-84
2023/12/14 04:05:18;;;;;;;1.92;1.17;;;;;;;;;;5057632;28;20056;-84
2023/12/14 04:07:45;;;;;;;2.85;1.70;;;;;;;;;;5074086;28;20052;-84
2023/12/14 04:10:13;;;;;;;1.98;1.30;;;;;;;;;;5064556;28;20049;-85
2023/12/14 04:12:40;;;;;;;1.88;1.17;;;;;;;;;;5071083;28;20079;-85
2023/12/14 04:15:08;;;;;;;1.30;1.20;;;;;;;;;;5036343;28;20049;-85
2023/12/14 04:17:35;;;;;;;1.58;1.23;;;;;;;;;;5045437;28;20056;-85
2023/12/14 04:20:02;;;;;;;1.63;1.15;;;;;;;;;;5036027;28;20053;-85
2023/12/14 04:22:29;;;;;;;1.48;1.30;;;;;;;;;;5034811;28;20085;-85
2023/12/14 04:24:56;;;;;;;3.92;1.70;;;;;;;;;;5066728;28;20135;-85
2023/12/14 04:27:27;;;;;;;2.15;1.63;;;;;;;;;;5083150;28;20080;-84
2023/12/14 04:29:53;;;;;;;2.25;1.20;;;;;;;;;;5070706;28;20084;-86
2023/12/14 04:32:20;;;;;;;2.42;1.35;;;;;;;;;;5088988;28;20506;-84
2023/12/14 04:34:47;;;;;;;1.65;1.17;;;;;;;;;;5051757;28;20142;-85
2023/12/14 04:37:14;;;;;;;1.73;1.50;;;;;;;;;;5039217;28;20520;-85
2023/12/14 04:39:40;;;;;;;1.58;1.20;;;;;;;;;;5064496;28;20546;-85
2023/12/14 04:42:07;;;;;;;4.18;1.70;;;;;;;;;;5055171;28;20079;-85
2023/12/14 04:44:34;;;;;;;2.03;1.33;;;;;;;;;;5051230;28;20057;-85
2023/12/14 04:47:01;;;;;;;4.25;1.55;;;;;;;;;;5063217;28;20056;-85
2023/12/14 04:49:28;;;;;;;3.35;1.52;;;;;;;;;;5062869;28;20048;-85
2023/12/14 04:51:54;;;;;;;2.33;1.30;;;;;;;;;;5069529;28;20056;-85
2023/12/14 04:54:21;;;;;;;2.90;1.77;;;;;;;;;;5082308;28;20080;-85
2023/12/14 04:56:48;;;;;;;2.72;1.83;;;;;;;;;;5059460;28;20117;-86
2023/12/14 04:59:15;;;;;;;3.30;2.30;;;;;;;;;;5066993;28;20508;-85
2023/12/14 05:04:11;;;;;;;3.30;2.00;;;;;;;;;;5055332;28;20055;-84
2023/12/14 05:06:38;;;;;;;2.58;1.60;;;;;;;;;;5044003;28;20072;-84
2023/12/14 05:09:06;;;;;;;2.47;1.60;;;;;;;;;;5022288;28;20049;-82
2023/12/14 05:11:33;;;;;;;3.58;1.40;;;;;;;;;;5072251;22;20044;-84
2023/12/14 05:19:10;;;;;;;1.95;1.75;;;;;;;;;;4998167;28;20039;-82
2023/12/14 05:21:37;;;;;;;3.20;1.90;;;;;;;;;;5134244;23;20107;-83
2023/12/14 05:24:05;;;;;;;8.85;2.15;;;;;;;;;;5186215;22;20041;-80
2023/12/14 05:26:32;;;;;;;4.18;2.13;;;;;;;;;;5176037;22;20033;-84
2023/12/14 05:28:59;;;;;;;4.38;2.15;;;;;;;;;;5053511;28;20442;-84
2023/12/14 05:31:26;;;;;;;7.68;2.15;;;;;;;;;;5035299;28;20052;-84
2023/12/14 05:33:52;;;;;;;2.67;1.83;;;;;;;;;;5050131;28;20088;-85
2023/12/14 05:36:19;;;;;;;2.63;2.00;;;;;;;;;;5031654;28;20538;-83
2023/12/14 05:38:47;;;;;;;2.28;1.83;;;;;;;;;;5021178;28;20054;-86
2023/12/14 05:41:13;;;;;;;2.25;1.83;;;;;;;;;;5025889;28;20049;-85
2023/12/14 05:43:41;;;;;;;2.22;1.85;;;;;;;;;;5033261;28;20123;-84
2023/12/14 05:46:08;;;;;;;2.88;1.73;;;;;;;;;;5057247;28;20092;-83
2023/12/14 05:48:37;;;;;;;5.35;2.63;;;;;;;;;;5024144;28;20088;-84
2023/12/14 05:51:04;;;;;;;3.55;2.20;;;;;;;;;;5036894;28;20049;-84
2023/12/14 05:53:36;;;;;;;4.32;2.70;;;;;;;;;;5026832;28;20060;-83
2023/12/14 05:56:03;;;;;;;2.17;1.90;;;;;;;;;;5044250;28;20064;-84
2023/12/14 05:58:30;;;;;;;4.20;1.85;;;;;;;;;;5051192;28;20457;-84
2023/12/14 06:00:57;;;;;;;2.60;2.13;;;;;;;;;;5043102;28;20403;-85
2023/12/14 06:03:24;;;;;;;5.15;2.08;;;;;;;;;;5018417;28;20080;-82
2023/12/14 06:05:51;;;;;;;2.42;2.03;;;;;;;;;;5037241;28;20071;-83
2023/12/14 06:08:18;;;;;;;2.60;1.90;;;;;;;;;;5006114;28;20064;-83
2023/12/14 06:10:45;;;;;;;2.22;2.03;;;;;;;;;;5045987;28;20049;-82
2023/12/14 06:13:12;;;;;;;2.58;2.17;;;;;;;;;;5041792;28;20057;-84
2023/12/14 06:15:39;;;;;;;3.42;2.58;;;;;;;;;;5025434;28;20053;-85
2023/12/14 06:18:06;;;;;;;3.15;2.40;;;;;;;;;;5012528;28;20478;-85
2023/12/14 06:20:33;;;;;;;4.53;3.30;;;;;;;;;;5022176;28;20057;-86
2023/12/14 06:22:59;;;;;;;4.03;2.35;;;;;;;;;;4999358;28;20081;-83
2023/12/14 06:25:26;;;;;;;3.60;3.17;;;;;;;;;;5014541;28;20053;-82
2023/12/14 06:27:53;;;;;;;3.42;2.58;;;;;;;;;;5021416;28;20053;-83
2023/12/14 06:30:20;;;;;;;3.83;2.80;;;;;;;;;;5019365;28;20048;-83
2023/12/14 06:32:47;;;;;;;3.25;2.92;;;;;;;;;;5035465;28;20459;-84
2023/12/14 06:35:14;;;;;;;3.70;2.55;;;;;;;;;;5030498;28;20059;-83
2023/12/14 06:37:44;;;;;;;4.88;3.13;;;;;;;;;;5036131;28;20063;-83
2023/12/14 06:40:11;;;;;;;3.92;3.17;;;;;;;;;;5034972;28;20064;-83
2023/12/14 06:42:38;;;;;;;4.00;3.05;;;;;;;;;;5019959;28;20053;-85
2023/12/14 06:45:05;;;;;;;6.18;3.85;;;;;;;;;;5008899;28;20105;-83
2023/12/14 06:47:32;;;;;;;8.10;3.38;;;;;;;;;;5019038;28;20252;-82
2023/12/14 06:49:59;;;;;;;5.78;3.47;;;;;;;;;;5018938;28;20054;-83
2023/12/14 06:52:26;;;;;;;4.85;3.33;;;;;;;;;;5015733;28;20057;-84
2023/12/14 06:54:53;;;;;;;5.28;3.00;;;;;;;;;;5011015;28;20053;-82
2023/12/14 06:57:20;;;;;;;5.60;3.95;;;;;;;;;;5033647;28;20057;-84
2023/12/14 06:59:50;;;;;;;4.45;2.97;;;;;;;;;;5027318;28;20561;-82
2023/12/14 07:02:16;;;;;;;4.72;3.42;;;;;;;;;;5016875;28;20049;-86
2023/12/14 07:04:43;;;;;;;5.88;3.88;;;;;;;;;;5015052;28;20050;-84
2023/12/14 07:07:12;;;;;;;5.10;3.88;;;;;;;;;;5019956;28;20112;-84
2023/12/14 07:09:39;;;;;;;5.18;3.47;;;;;;;;;;5021150;28;20049;-84
2023/12/14 07:12:07;;;;;;;5.07;3.97;;;;;;;;;;5019539;28;20511;-85
2023/12/14 07:14:34;;;;;;;7.43;3.95;;;;;;;;;;5029569;28;20104;-84
2023/12/14 07:17:01;;;;;;;5.25;4.30;;;;;;;;;;5016522;28;20049;-83
2023/12/14 07:19:28;;;;;;;6.43;5.35;;;;;;;;;;5018576;28;20057;-84
2023/12/14 07:21:55;;;;;;;5.55;5.05;;;;;;;;;;5037394;28;20084;-84
2023/12/14 07:24:22;;;;;;;6.65;5.22;;;;;;;;;;5013953;28;20088;-83
2023/12/14 07:26:49;;;;;;;4.80;4.30;;;;;;;;;;5010318;28;20057;-83
2023/12/14 07:29:16;;;;;;;6.93;5.43;;;;;;;;;;5009563;28;20499;-82
2023/12/14 07:31:43;;;;;;;14.57;9.63;;;;;;;;;;5016142;28;20050;-84
2023/12/14 07:34:09;;;;;;;17.58;10.30;;;;;;;;;;5004529;28;20053;-83
2023/12/14 07:36:37;;;;;;;12.10;8.27;;;;;;;;;;5033740;28;20050;-79
2023/12/14 07:39:04;;;;;;;25.77;12.18;;;;;;;;;;5029545;28;20061;-81
2023/12/14 07:41:32;;;;;;;17.55;10.00;;;;;;;;;;5030557;28;20507;-80
2023/12/14 07:43:58;;;;;;;20.88;9.93;;;;;;;;;;5012469;28;20096;-81
2023/12/14 07:46:28;;;;;;;10.88;7.20;;;;;;;;;;5032407;28;20080;-81
2023/12/14 07:48:55;;;;;;;11.30;6.75;;;;;;;;;;5032018;28;20115;-81
2023/12/14 07:51:22;;;;;;;10.70;7.70;;;;;;;;;;5031711;28;20140;-81
2023/12/14 07:53:49;;;;;;;9.25;6.20;;;;;;;;;;5027830;28;20088;-84
2023/12/14 07:56:16;;;;;;;10.55;6.65;;;;;;;;;;5030596;28;20065;-81
2023/12/14 07:58:43;;;;;;;8.32;5.93;;;;;;;;;;5032575;28;20064;-81
2023/12/14 08:01:10;;;;;;;11.20;8.05;;;;;;;;;;5031150;28;20081;-83
2023/12/14 08:03:37;;;;;;;13.52;7.75;;;;;;;;;;5011728;28;20067;-83
2023/12/14 08:06:04;;;;;;;9.07;6.15;;;;;;;;;;5025762;28;20053;-82
2023/12/14 08:08:30;;;;;;;13.05;6.32;;;;;;;;;;5007684;28;20080;-84
2023/12/14 08:10:57;;;;;;;8.45;5.75;;;;;;;;;;5009310;28;20049;-81
2023/12/14 08:13:24;;;;;;;9.63;6.63;;;;;;;;;;5024398;28;20068;-83
2023/12/14 08:15:51;;;;;;;15.13;8.27;;;;;;;;;;5031453;28;20064;-80
2023/12/14 08:18:17;;;;;;;13.48;8.88;;;;;;;;;;5058922;28;20050;-79
2023/12/14 08:20:44;;;;;;;10.98;7.45;;;;;;;;;;5042787;28;20057;-80
2023/12/14 08:23:11;;;;;;;13.48;7.93;;;;;;;;;;5036677;28;20049;-81
2023/12/14 08:25:38;;;;;;;13.02;7.40;;;;;;;;;;5013532;28;20462;-80
2023/12/14 08:28:05;;;;;;;10.25;6.10;;;;;;;;;;5036222;28;20050;-85
2023/12/14 08:30:31;;;;;;;10.93;7.45;;;;;;;;;;5021412;28;20058;-85
2023/12/14 08:32:58;;;;;;;10.68;7.03;;;;;;;;;;5012712;28;20084;-85
2023/12/14 08:35:25;;;;;;;9.65;6.10;;;;;;;;;;5000866;28;20471;-85
2023/12/14 08:37:52;;;;;;;8.25;5.57;;;;;;;;;;5033475;28;20091;-85
2023/12/14 08:40:19;;;;;;;9.65;5.95;;;;;;;;;;5038614;28;20053;-83
2023/12/14 08:42:47;;;;;;;13.77;6.55;;;;;;;;;;5020664;28;20542;-84
2023/12/14 08:45:13;;;;;;;9.02;6.93;;;;;;;;;;5021046;28;20414;-85
2023/12/14 08:47:40;;;;;;;8.85;6.28;;;;;;;;;;5008028;28;20073;-86
2023/12/14 08:50:08;;;;;;;8.43;5.70;;;;;;;;;;4996971;28;20137;-85
2023/12/14 08:52:35;;;;;;;7.75;5.55;;;;;;;;;;4992834;28;20507;-86
2023/12/14 08:55:03;;;;;;;9.35;5.57;;;;;;;;;;5014476;28;20049;-80
2023/12/14 08:57:31;;;;;;;9.55;6.50;;;;;;;;;;5009069;28;20118;-84
2023/12/14 08:59:58;;;;;;;10.98;6.70;;;;;;;;;;4998514;28;20046;-86
2023/12/14 09:02:25;;;;;;;10.07;6.10;;;;;;;;;;4999277;28;20049;-85
2023/12/14 09:04:52;;;;;;;11.02;6.97;;;;;;;;;;5030338;28;20054;-85
2023/12/14 09:07:19;;;;;;;10.00;6.60;;;;;;;;;;5012398;28;20095;-85
2023/12/14 09:09:45;;;;;;;11.35;7.10;;;;;;;;;;5008980;28;20088;-85
2023/12/14 09:12:13;;;;;;;10.23;7.40;;;;;;;;;;5014887;28;20046;-85
2023/12/14 09:14:43;;;;;;;9.77;7.10;;;;;;;;;;5012309;28;20084;-86
2023/12/14 09:17:11;;;;;;;9.73;6.65;;;;;;;;;;5012091;28;20109;-85
2023/12/14 09:19:38;;;;;;;10.40;6.88;;;;;;;;;;4994994;28;20129;-86
2023/12/14 09:22:05;;;;;;;11.82;7.15;;;;;;;;;;5014965;28;20515;-85
2023/12/14 09:24:32;;;;;;;9.35;6.15;;;;;;;;;;5011050;28;20507;-87
2023/12/14 09:26:59;;;;;;;8.80;6.53;;;;;;;;;;4997805;28;20053;-85
2023/12/14 09:29:26;;;;;;;9.38;6.78;;;;;;;;;;5016064;28;20050;-86
2023/12/14 09:31:54;;;;;;;8.50;6.20;;;;;;;;;;5014344;28;20108;-85
2023/12/14 09:34:21;;;;;;;8.13;6.13;;;;;;;;;;4996702;28;20058;-86
2023/12/14 09:36:48;;;;;;;10.10;6.95;;;;;;;;;;5008753;28;20064;-86
2023/12/14 09:39:15;;;;;;;11.63;7.43;;;;;;;;;;4998784;28;20050;-85
2023/12/14 09:41:42;;;;;;;13.55;7.78;;;;;;;;;;5017113;28;20046;-85
2023/12/14 09:44:09;;;;;;;11.20;8.23;;;;;;;;;;5037204;28;20065;-86
2023/12/14 09:46:36;;;;;;;13.45;7.78;;;;;;;;;;5024193;28;20084;-85
2023/12/14 09:49:04;;;;;;;11.00;7.50;;;;;;;;;;5018910;28;20141;-84
2023/12/14 09:51:34;;;;;;;11.15;7.13;;;;;;;;;;5014532;28;20051;-85
2023/12/14 09:54:02;;;;;;;11.98;8.45;;;;;;;;;;5017168;28;20057;-85
2023/12/14 09:56:30;;;;;;;9.73;7.10;;;;;;;;;;5023103;28;20054;-89
2023/12/14 09:58:58;;;;;;;10.68;6.78;;;;;;;;;;5011819;28;20052;-86
2023/12/14 10:01:26;;;;;;;12.23;7.65;;;;;;;;;;5005196;28;20042;-88
2023/12/14 10:04:12;;;;;;;10.40;7.68;;;;;;;;;;5005810;28;20046;-86
2023/12/14 10:06:40;;;;;;;10.43;7.35;;;;;;;;;;5007123;28;20057;-87
2023/12/14 10:09:13;;;;;;;10.18;7.03;;;;;;;;;;5021454;28;20057;-86
2023/12/14 10:11:40;;;;;;;11.20;7.10;;;;;;;;;;5003631;28;20054;-87
2023/12/14 10:14:33;;;;;;;8.40;6.60;;;;;;;;;;5001452;28;20080;-85
2023/12/14 10:17:33;;;;;;;11.32;7.50;;;;;;;;;;5000668;28;20053;-85
2023/12/14 10:20:03;;;;;;;10.10;7.35;;;;;;;;;;4985603;28;20093;-85
2023/12/14 10:22:32;;;;;;;12.60;7.53;;;;;;;;;;5015596;28;20053;-81
2023/12/14 10:25:00;;;;;;;14.57;7.90;;;;;;;;;;5033950;28;20534;-85
2023/12/14 10:27:27;;;;;;;12.63;7.45;;;;;;;;;;4999180;28;20069;-84
2023/12/14 10:29:55;;;;;;;13.15;8.15;;;;;;;;;;5000557;28;20154;-81
2023/12/14 10:32:23;;;;;;;11.75;7.65;;;;;;;;;;5029780;28;20117;-85
2023/12/14 10:34:50;;;;;;;13.75;7.80;;;;;;;;;;4997064;28;20061;-83
2023/12/14 10:37:17;;;;;;;13.48;7.57;;;;;;;;;;5036580;28;20079;-84
2023/12/14 10:39:44;;;;;;;10.48;7.22;;;;;;;;;;5001155;28;20092;-85
2023/12/14 10:42:11;;;;;;;11.15;7.57;;;;;;;;;;5015033;28;20116;-84
2023/12/14 10:44:46;;;;;;;16.77;8.27;;;;;;;;;;5025294;28;20050;-85
2023/12/14 10:47:33;;;;;;;9.27;6.20;;;;;;;;;;5012050;28;20045;-85
2023/12/14 10:50:01;;;;;;;12.40;5.85;;;;;;;;;;4993175;28;20057;-85
2023/12/14 10:52:28;;;;;;;9.80;6.05;;;;;;;;;;5014272;28;20049;-85
2023/12/14 10:54:59;;;;;;;10.05;6.40;;;;;;;;;;5012076;28;20045;-85
2023/12/14 10:57:25;;;;;;;11.55;6.60;;;;;;;;;;5007856;28;20140;-87
2023/12/14 10:59:59;;;;;;;9.85;6.05;;;;;;;;;;4998131;28;20460;-84
2023/12/14 11:02:26;;;;;;;13.00;5.95;;;;;;;;;;5031669;28;20071;-86
2023/12/14 11:04:58;;;;;;;8.02;5.80;;;;;;;;;;4997141;28;20053;-87
2023/12/14 11:07:55;;;;;;;9.30;5.60;;;;;;;;;;4996347;28;20068;-85
2023/12/14 11:10:26;;;;;;;9.13;5.50;;;;;;;;;;5018182;28;20108;-86
2023/12/14 11:13:05;;;;;;;9.10;5.60;;;;;;;;;;5006584;28;20077;-88
2023/12/14 11:15:35;;;;;;;12.18;5.88;;;;;;;;;;4992875;28;20112;-87
2023/12/14 11:18:09;;;;;;;8.45;5.55;;;;;;;;;;5007849;28;20085;-86
2023/12/14 11:20:50;;;;;;;8.98;5.72;;;;;;;;;;5020753;28;20128;-87
2023/12/14 11:23:26;;;;;;;8.35;5.47;;;;;;;;;;5025353;28;20042;-88
2023/12/14 11:25:57;;;;;;;9.05;5.00;;;;;;;;;;5026142;28;20127;-87
2023/12/14 11:28:30;;;;;;;6.63;4.63;;;;;;;;;;4998764;28;20077;-86
2023/12/14 11:30:58;;;;;;;8.02;5.68;;;;;;;;;;5015310;28;20104;-86
2023/12/14 11:33:34;;;;;;;7.43;5.57;;;;;;;;;;5004516;28;20078;-85
2023/12/14 11:39:54;;;;;;;9.57;6.07;;;;;;;;;;5020213;28;20033;-88
2023/12/14 11:42:21;;;;;;;9.75;5.63;;;;;;;;;;5025411;28;20092;-89
2023/12/14 11:44:48;;;;;;;9.23;5.82;;;;;;;;;;5038893;28;20054;-91
2023/12/14 11:47:15;;;;;;;12.50;6.82;;;;;;;;;;5037610;28;20030;-85
2023/12/14 11:49:43;;;;;;;9.85;6.50;;;;;;;;;;5012892;28;20054;-86
2023/12/14 11:52:10;;;;;;;11.85;6.88;;;;;;;;;;5003140;28;20034;-85
2023/12/14 11:54:37;;;;;;;12.77;7.35;;;;;;;;;;5011014;28;20050;-89
2023/12/14 11:57:04;;;;;;;8.82;6.22;;;;;;;;;;5008781;28;20050;-86
2023/12/14 11:59:32;;;;;;;11.13;7.13;;;;;;;;;;4996115;28;20054;-86
2023/12/14 12:02:01;;;;;;;12.65;6.57;;;;;;;;;;5011102;28;20057;-85
2023/12/14 12:04:28;;;;;;;11.68;7.25;;;;;;;;;;5013111;28;20089;-86
2023/12/14 12:08:49;;;;;;;11.68;6.18;;;;;;;;;;4785500;27;1388017;-87
2023/12/14 12:11:19;;;;;;;10.88;6.95;;;;;;;;;;4930554;28;20502;-87
2023/12/14 12:13:56;;;;;;;11.43;6.47;;;;;;;;;;4987741;28;20049;-87
2023/12/14 12:16:23;;;;;;;9.88;7.15;;;;;;;;;;5023684;28;20045;-87
2023/12/14 12:18:50;;;;;;;8.65;6.57;;;;;;;;;;5051618;28;20063;-87
2023/12/14 12:21:19;;;;;;;9.15;6.15;;;;;;;;;;5019876;28;20049;-88
2023/12/14 12:23:47;;;;;;;8.80;6.22;;;;;;;;;;5016892;28;20051;-87
2023/12/14 12:26:16;;;;;;;11.52;5.93;;;;;;;;;;5047941;28;20049;-87
2023/12/14 12:28:43;;;;;;;10.93;6.65;;;;;;;;;;5046519;28;20049;-86
2023/12/14 12:31:10;;;;;;;13.80;5.45;;;;;;;;;;5042881;28;20056;-87
2023/12/14 12:33:37;;;;;;;6.97;4.85;;;;;;;;;;5065413;28;20102;-87
2023/12/14 12:36:05;;;;;;;7.63;5.00;;;;;;;;;;5057284;28;20072;-87
2023/12/14 12:38:32;;;;;;;6.93;5.03;;;;;;;;;;5044037;28;20076;-86
2023/12/14 12:41:00;;;;;;;7.00;4.88;;;;;;;;;;5036414;28;20049;-86
2023/12/14 12:43:27;;;;;;;12.38;4.78;;;;;;;;;;5052487;28;20068;-86
2023/12/14 12:45:53;;;;;;;5.63;4.28;;;;;;;;;;5026055;28;20053;-88
2023/12/14 12:48:20;;;;;;;4.47;2.55;;;;;;;;;;5033350;28;20095;-87
2023/12/14 12:50:52;;;;;;;3.20;2.88;;;;;;;;;;5060104;28;20049;-88
2023/12/14 12:53:18;;;;;;;3.47;2.80;;;;;;;;;;5041082;28;20072;-86
2023/12/14 12:55:45;;;;;;;3.97;2.83;;;;;;;;;;5057268;28;20052;-87
2023/12/14 12:58:14;;;;;;;5.50;4.05;;;;;;;;;;5039852;28;20934;-86
2023/12/14 13:00:41;;;;;;;5.47;3.50;;;;;;;;;;5021300;28;20088;-87
2023/12/14 13:03:09;;;;;;;4.97;3.05;;;;;;;;;;5051036;28;20057;-88
2023/12/14 13:05:36;;;;;;;5.05;3.20;;;;;;;;;;5018531;28;20049;-87
2023/12/14 13:08:03;;;;;;;4.35;3.17;;;;;;;;;;5025546;28;20128;-87
2023/12/14 13:10:30;;;;;;;4.72;4.18;;;;;;;;;;5035247;28;20474;-87
2023/12/14 13:12:58;;;;;;;6.20;3.80;;;;;;;;;;5039243;28;20049;-87
2023/12/14 13:15:26;;;;;;;8.07;4.00;;;;;;;;;;5032416;28;20231;-87
2023/12/14 13:17:53;;;;;;;6.07;3.38;;;;;;;;;;5035198;28;20136;-87
2023/12/14 13:20:21;;;;;;;4.47;3.53;;;;;;;;;;5042048;28;20064;-89
2023/12/14 13:22:48;;;;;;;7.45;4.35;;;;;;;;;;5006491;28;20053;-85
2023/12/14 13:25:16;;;;;;;6.57;3.88;;;;;;;;;;5034978;28;20081;-82
2023/12/14 13:27:42;;;;;;;6.43;3.60;;;;;;;;;;5028830;28;20060;-79
2023/12/14 13:30:10;;;;;;;6.03;4.22;;;;;;;;;;5046904;28;20056;-87
2023/12/14 13:32:38;;;;;;;8.43;4.53;;;;;;;;;;5021351;28;20050;-85
2023/12/14 13:35:05;;;;;;;7.57;4.28;;;;;;;;;;5041942;28;20068;-86
2023/12/14 13:37:32;;;;;;;8.30;4.65;;;;;;;;;;5031271;28;20420;-82
2023/12/14 13:40:00;;;;;;;4.82;3.78;;;;;;;;;;5038527;28;20491;-85
2023/12/14 13:42:26;;;;;;;5.63;3.80;;;;;;;;;;5037120;28;20056;-84
2023/12/14 13:44:53;;;;;;;5.88;3.92;;;;;;;;;;5036561;28;20057;-85
2023/12/14 13:47:19;;;;;;;6.43;4.30;;;;;;;;;;5017556;28;20126;-80
2023/12/14 13:49:46;;;;;;;5.25;4.50;;;;;;;;;;5040437;28;20050;-84
2023/12/14 13:52:13;;;;;;;7.57;4.18;;;;;;;;;;5028434;28;20072;-84
2023/12/14 13:54:39;;;;;;;10.45;4.95;;;;;;;;;;5024709;28;20056;-84
2023/12/14 13:57:06;;;;;;;8.40;4.38;;;;;;;;;;5042398;28;20053;-83
2023/12/14 13:59:33;;;;;;;7.38;4.38;;;;;;;;;;5021615;28;20511;-87
2023/12/14 14:01:59;;;;;;;9.63;4.43;;;;;;;;;;5010032;28;20049;-87
2023/12/14 14:04:26;;;;;;;7.50;4.82;;;;;;;;;;5023081;28;20049;-86
2023/12/14 14:06:53;;;;;;;7.03;4.45;;;;;;;;;;5022799;28;20049;-87
2023/12/14 14:09:20;;;;;;;6.85;3.92;;;;;;;;;;4994803;28;20048;-86
2023/12/14 14:11:49;;;;;;;4.93;3.58;;;;;;;;;;5018173;28;20233;-87
2023/12/14 14:14:16;;;;;;;8.70;4.10;;;;;;;;;;5021172;28;20105;-85
2023/12/14 14:16:43;;;;;;;6.85;4.05;;;;;;;;;;5039665;28;20095;-83
2023/12/14 14:19:10;;;;;;;7.53;4.53;;;;;;;;;;5023464;28;20057;-84
2023/12/14 14:21:37;;;;;;;5.70;3.80;;;;;;;;;;5012731;28;20073;-86
2023/12/14 14:24:04;;;;;;;5.63;4.35;;;;;;;;;;5009959;28;20052;-83
2023/12/14 14:26:30;;;;;;;6.97;4.85;;;;;;;;;;5049821;28;20422;-84
2023/12/14 14:29:01;;;;;;;7.55;4.95;;;;;;;;;;5025447;28;20077;-84
2023/12/14 14:31:31;;;;;;;7.75;4.93;;;;;;;;;;5019805;28;20517;-85
2023/12/14 14:34:00;;;;;;;11.32;5.70;;;;;;;;;;5041449;28;20041;-85
2023/12/14 14:36:27;;;;;;;10.68;5.75;;;;;;;;;;5042493;28;20099;-82
2023/12/14 14:38:54;;;;;;;12.50;7.13;;;;;;;;;;5009691;28;20050;-84
2023/12/14 14:41:21;;;;;;;15.88;8.35;;;;;;;;;;5006958;28;20045;-84
2023/12/14 14:43:48;;;;;;;10.60;6.82;;;;;;;;;;5038517;28;20055;-88
2023/12/14 14:46:14;;;;;;;15.02;8.35;;;;;;;;;;5046809;28;20076;-86
2023/12/14 14:48:42;;;;;;;8.88;5.93;;;;;;;;;;5008905;28;20099;-86
2023/12/14 14:51:09;;;;;;;9.50;6.60;;;;;;;;;;5020415;28;20037;-86
2023/12/14 14:53:37;;;;;;;10.63;6.45;;;;;;;;;;5004150;28;20081;-86
2023/12/14 14:56:04;;;;;;;9.65;6.35;;;;;;;;;;5010386;28;20049;-85
2023/12/14 14:58:31;;;;;;;11.00;6.88;;;;;;;;;;5045380;28;20115;-85